Terminal Aerodrome Forecast
Issued by NWS

Current Version | Previous Version | Graphics & Text | Print | Product List | Glossary On
Versions: 1 2 3 4 5 6 7 8 9 10 11 12 13 14 15 16 17 18 19 20 21 22 23 24 25 26
652
FTUS41 KPBZ 291138
TAFHLG
TAF
KHLG 291138Z 2912/3012 00000KT 0SM FG VV002
     FM291300 29003KT 1SM BR SCT001 BKN040
     FM291330 32002KT 2SM BR BKN007
     FM291400 28004KT P6SM BKN015
     FM291600 31004KT P6SM BKN025
     FM291800 32005KT P6SM BKN050=

USA.gov is the U.S. government's official web portal to all federal, state and local government web resources and services.